This is the latest recevied weather packets stored in our database for station/object EA1GLE. If no packets are shown the sender has not sent any weather packets the latest 10 day(s).
| Time | Temp. | Humidity | Pressure | Rain* | Wind** | Luminosity | Snow |
|---|---|---|---|---|---|---|---|
| 1778148004 | 15.56° C | 60% | 1013.4 hPa | 0 mm | - | 767 W/m² | - |
| 1778147103 | 16.11° C | 60% | 1013.2 hPa | 0 mm | - | 544 W/m² | - |
| 1778138283 | 12.78° C | 75% | 1013.3 hPa | 0 mm | - | 211 W/m² | - |
| 1778137204 | 11.11° C | 82% | 1013.2 hPa | 0 mm | - | 161 W/m² | - |
| 1778135898 | 10.56° C | 82% | 1013.4 hPa | 0 mm | - | 74 W/m² | - |
| 1778133244 | 8.33° C | 91% | 1013.4 hPa | 0 mm | - | 30 W/m² | - |
| 1778131758 | 7.22° C | 95% | 1013.3 hPa | 0 mm | - | 15 W/m² | - |
| 1778127077 | 7.22° C | 96% | 1013.3 hPa | 0 mm | - | 0 W/m² | - |
| 1778121904 | 7.22° C | 96% | 1013.5 hPa | 0 mm | - | 0 W/m² | - |
| 1778120824 | 7.22° C | 96% | 1013.6 hPa | 0 mm | - | 0 W/m² | - |
| 1778112003 | 7.78° C | 91% | 1014.6 hPa | 0 mm | - | 0 W/m² | - |
| 1778111104 | 7.78° C | 91% | 1014.3 hPa | 0 mm | - | 0 W/m² | - |
| 1778110563 | 7.78° C | 91% | 1014.6 hPa | 0 mm | - | 0 W/m² | - |
| 1778108943 | 7.78° C | 91% | 1014.6 hPa | 0 mm | - | 0 W/m² | - |
| 1778108403 | 7.78° C | 91% | 1014.3 hPa | 0 mm | - | 0 W/m² | - |
| 1778105883 | 7.78° C | 92% | 1014.5 hPa | 0 mm | - | 0 W/m² | - |
| 1778103364 | 8.33° C | 90% | 1014.8 hPa | 0 mm | - | 0 W/m² | - |
| 1778102283 | 8.89° C | 89% | 1014.5 hPa | 0 mm | - | 0 W/m² | - |
| 1778090538 | 13.89° C | 63% | 1013.6 hPa | 0 mm | - | 39 W/m² | - |
| 1778089098 | 15° C | 59% | 1013.6 hPa | 0 mm | - | 216 W/m² | - |
| 1778086803 | 15° C | 54% | 1013.7 hPa | 0 mm | - | 308 W/m² | - |
| 1778085903 | 13.89° C | 58% | 1013.9 hPa | 0 mm | - | 83 W/m² | - |
| 1778085363 | 14.44° C | 56% | 1013.8 hPa | 0 mm | - | 71 W/m² | - |
| 1778082977 | 14.44° C | 48% | 1013.9 hPa | 0 mm | - | 415 W/m² | - |
| 1778072043 | 15.56° C | 56% | 1015.2 hPa | 0 mm | - | 897 W/m² | - |
* Rain latest hour (hover to see other rain measurements)
** Current wind speed in m/s (hover to see current wind gust speed)